sensor_id;sensor_type;location;lat;lon;timestamp;P1;durP1;ratioP1;P2;durP2;ratioP2
13712;SDS011;6928;50.546;7.120;2024-02-26T00:01:12;2.17;;;0.88;;
13712;SDS011;6928;50.546;7.120;2024-02-26T00:03:42;0.73;;;0.70;;
13712;SDS011;6928;50.546;7.120;2024-02-26T00:06:12;3.03;;;0.73;;
13712;SDS011;6928;50.546;7.120;2024-02-26T00:08:38;2.58;;;0.98;;
13712;SDS011;6928;50.546;7.120;2024-02-26T00:11:05;2.03;;;0.70;;
13712;SDS011;6928;50.546;7.120;2024-02-26T00:13:32;0.82;;;0.70;;
13712;SDS011;6928;50.546;7.120;2024-02-26T00:15:58;0.70;;;0.65;;
13712;SDS011;6928;50.546;7.120;2024-02-26T00:18:25;0.70;;;0.65;;
13712;SDS011;6928;50.546;7.120;2024-02-26T00:20:51;1.67;;;1.00;;
13712;SDS011;6928;50.546;7.120;2024-02-26T00:23:19;1.30;;;0.70;;
13712;SDS011;6928;50.546;7.120;2024-02-26T00:25:46;1.30;;;0.88;;
13712;SDS011;6928;50.546;7.120;2024-02-26T00:28:13;1.08;;;0.80;;
13712;SDS011;6928;50.546;7.120;2024-02-26T00:30:39;1.30;;;0.80;;
13712;SDS011;6928;50.546;7.120;2024-02-26T00:33:06;0.65;;;0.65;;
13712;SDS011;6928;50.546;7.120;2024-02-26T00:35:32;3.40;;;0.63;;
13712;SDS011;6928;50.546;7.120;2024-02-26T00:37:59;0.60;;;0.60;;
13712;SDS011;6928;50.546;7.120;2024-02-26T00:40:28;2.83;;;0.73;;
13712;SDS011;6928;50.546;7.120;2024-02-26T00:42:55;2.58;;;0.60;;
13712;SDS011;6928;50.546;7.120;2024-02-26T00:45:21;0.85;;;0.70;;
13712;SDS011;6928;50.546;7.120;2024-02-26T00:47:48;0.52;;;0.52;;
13712;SDS011;6928;50.546;7.120;2024-02-26T00:50:16;1.02;;;0.93;;
13712;SDS011;6928;50.546;7.120;2024-02-26T00:52:43;1.52;;;1.10;;
13712;SDS011;6928;50.546;7.120;2024-02-26T00:55:09;8.15;;;0.95;;
13712;SDS011;6928;50.546;7.120;2024-02-26T00:57:37;0.65;;;0.60;;
13712;SDS011;6928;50.546;7.120;2024-02-26T01:00:06;0.65;;;0.65;;
13712;SDS011;6928;50.546;7.120;2024-02-26T01:02:33;0.50;;;0.50;;
13712;SDS011;6928;50.546;7.120;2024-02-26T01:05:00;1.92;;;0.75;;
13712;SDS011;6928;50.546;7.120;2024-02-26T01:07:27;3.90;;;0.98;;
13712;SDS011;6928;50.546;7.120;2024-02-26T01:09:58;1.35;;;0.90;;
13712;SDS011;6928;50.546;7.120;2024-02-26T01:12:24;0.80;;;0.80;;
13712;SDS011;6928;50.546;7.120;2024-02-26T01:14:52;4.25;;;0.80;;
13712;SDS011;6928;50.546;7.120;2024-02-26T01:17:19;1.13;;;0.80;;
13712;SDS011;6928;50.546;7.120;2024-02-26T01:19:46;1.33;;;0.85;;
13712;SDS011;6928;50.546;7.120;2024-02-26T01:22:12;0.60;;;0.60;;
13712;SDS011;6928;50.546;7.120;2024-02-26T01:24:39;0.50;;;0.50;;
13712;SDS011;6928;50.546;7.120;2024-02-26T01:27:06;0.60;;;0.60;;
13712;SDS011;6928;50.546;7.120;2024-02-26T01:29:35;2.15;;;0.77;;
13712;SDS011;6928;50.546;7.120;2024-02-26T01:32:04;0.70;;;0.70;;
13712;SDS011;6928;50.546;7.120;2024-02-26T01:34:31;2.15;;;0.70;;
13712;SDS011;6928;50.546;7.120;2024-02-26T01:36:57;0.60;;;0.60;;
13712;SDS011;6928;50.546;7.120;2024-02-26T01:39:24;0.70;;;0.70;;
13712;SDS011;6928;50.546;7.120;2024-02-26T01:41:51;0.98;;;0.60;;
13712;SDS011;6928;50.546;7.120;2024-02-26T01:44:17;0.55;;;0.50;;
13712;SDS011;6928;50.546;7.120;2024-02-26T01:46:44;0.77;;;0.75;;
13712;SDS011;6928;50.546;7.120;2024-02-26T01:49:12;0.95;;;0.70;;
13712;SDS011;6928;50.546;7.120;2024-02-26T01:51:39;0.65;;;0.65;;
13712;SDS011;6928;50.546;7.120;2024-02-26T01:54:05;1.38;;;0.73;;
13712;SDS011;6928;50.546;7.120;2024-02-26T01:56:34;0.70;;;0.70;;
13712;SDS011;6928;50.546;7.120;2024-02-26T01:59:02;0.93;;;0.45;;
13712;SDS011;6928;50.546;7.120;2024-02-26T02:01:29;0.63;;;0.60;;
13712;SDS011;6928;50.546;7.120;2024-02-26T02:03:57;0.88;;;0.52;;
13712;SDS011;6928;50.546;7.120;2024-02-26T02:06:26;0.60;;;0.60;;
13712;SDS011;6928;50.546;7.120;2024-02-26T02:08:54;0.70;;;0.70;;
13712;SDS011;6928;50.546;7.120;2024-02-26T02:11:21;1.42;;;0.70;;
13712;SDS011;6928;50.546;7.120;2024-02-26T02:13:47;4.43;;;0.80;;
13712;SDS011;6928;50.546;7.120;2024-02-26T02:16:14;0.70;;;0.70;;
13712;SDS011;6928;50.546;7.120;2024-02-26T02:18:40;0.70;;;0.70;;
13712;SDS011;6928;50.546;7.120;2024-02-26T02:21:08;0.88;;;0.70;;
13712;SDS011;6928;50.546;7.120;2024-02-26T02:23:35;1.05;;;0.70;;
13712;SDS011;6928;50.546;7.120;2024-02-26T02:26:01;1.60;;;0.60;;
13712;SDS011;6928;50.546;7.120;2024-02-26T02:28:28;0.80;;;0.65;;
13712;SDS011;6928;50.546;7.120;2024-02-26T02:30:55;0.50;;;0.50;;
13712;SDS011;6928;50.546;7.120;2024-02-26T02:33:22;0.60;;;0.60;;
13712;SDS011;6928;50.546;7.120;2024-02-26T02:35:49;1.10;;;0.50;;
13712;SDS011;6928;50.546;7.120;2024-02-26T02:38:20;0.60;;;0.60;;
13712;SDS011;6928;50.546;7.120;2024-02-26T02:40:48;0.50;;;0.50;;
13712;SDS011;6928;50.546;7.120;2024-02-26T02:43:14;0.50;;;0.50;;
13712;SDS011;6928;50.546;7.120;2024-02-26T02:45:41;2.15;;;0.40;;
13712;SDS011;6928;50.546;7.120;2024-02-26T02:48:08;1.58;;;0.50;;
13712;SDS011;6928;50.546;7.120;2024-02-26T02:50:34;0.98;;;0.50;;
13712;SDS011;6928;50.546;7.120;2024-02-26T02:53:01;0.93;;;0.52;;
13712;SDS011;6928;50.546;7.120;2024-02-26T02:55:29;4.90;;;0.60;;
13712;SDS011;6928;50.546;7.120;2024-02-26T02:57:56;0.68;;;0.60;;
13712;SDS011;6928;50.546;7.120;2024-02-26T03:00:22;0.52;;;0.50;;
13712;SDS011;6928;50.546;7.120;2024-02-26T03:02:49;0.40;;;0.40;;
13712;SDS011;6928;50.546;7.120;2024-02-26T03:05:16;1.45;;;0.70;;
13712;SDS011;6928;50.546;7.120;2024-02-26T03:07:42;0.50;;;0.50;;
13712;SDS011;6928;50.546;7.120;2024-02-26T03:10:08;0.80;;;0.52;;
13712;SDS011;6928;50.546;7.120;2024-02-26T03:12:36;0.50;;;0.50;;
13712;SDS011;6928;50.546;7.120;2024-02-26T03:15:03;1.10;;;0.50;;
13712;SDS011;6928;50.546;7.120;2024-02-26T03:17:30;0.40;;;0.38;;
13712;SDS011;6928;50.546;7.120;2024-02-26T03:19:56;0.40;;;0.40;;
13712;SDS011;6928;50.546;7.120;2024-02-26T03:22:23;1.88;;;0.73;;
13712;SDS011;6928;50.546;7.120;2024-02-26T03:24:49;0.50;;;0.50;;
13712;SDS011;6928;50.546;7.120;2024-02-26T03:27:16;0.60;;;0.60;;
13712;SDS011;6928;50.546;7.120;2024-02-26T03:29:44;0.50;;;0.50;;
13712;SDS011;6928;50.546;7.120;2024-02-26T03:32:10;0.60;;;0.60;;
13712;SDS011;6928;50.546;7.120;2024-02-26T03:34:37;0.52;;;0.52;;
13712;SDS011;6928;50.546;7.120;2024-02-26T03:37:04;0.55;;;0.55;;
13712;SDS011;6928;50.546;7.120;2024-02-26T03:39:30;0.60;;;0.60;;
13712;SDS011;6928;50.546;7.120;2024-02-26T03:41:57;4.13;;;1.02;;
13712;SDS011;6928;50.546;7.120;2024-02-26T03:44:23;0.50;;;0.50;;
13712;SDS011;6928;50.546;7.120;2024-02-26T03:46:52;0.50;;;0.50;;
13712;SDS011;6928;50.546;7.120;2024-02-26T03:49:18;0.68;;;0.40;;
13712;SDS011;6928;50.546;7.120;2024-02-26T03:51:45;0.40;;;0.40;;
13712;SDS011;6928;50.546;7.120;2024-02-26T03:54:12;0.60;;;0.60;;
13712;SDS011;6928;50.546;7.120;2024-02-26T03:56:39;0.68;;;0.68;;
13712;SDS011;6928;50.546;7.120;2024-02-26T03:59:05;0.40;;;0.40;;
13712;SDS011;6928;50.546;7.120;2024-02-26T04:01:32;1.00;;;0.50;;
13712;SDS011;6928;50.546;7.120;2024-02-26T04:04:00;0.70;;;0.70;;
13712;SDS011;6928;50.546;7.120;2024-02-26T04:06:26;0.77;;;0.50;;
13712;SDS011;6928;50.546;7.120;2024-02-26T04:08:53;0.45;;;0.45;;
13712;SDS011;6928;50.546;7.120;2024-02-26T04:11:19;0.65;;;0.50;;
13712;SDS011;6928;50.546;7.120;2024-02-26T04:13:47;0.50;;;0.50;;
13712;SDS011;6928;50.546;7.120;2024-02-26T04:16:14;0.50;;;0.50;;
13712;SDS011;6928;50.546;7.120;2024-02-26T04:18:41;1.23;;;0.55;;
13712;SDS011;6928;50.546;7.120;2024-02-26T04:21:09;1.20;;;0.60;;
13712;SDS011;6928;50.546;7.120;2024-02-26T04:23:35;0.50;;;0.50;;
13712;SDS011;6928;50.546;7.120;2024-02-26T04:26:02;0.73;;;0.70;;
13712;SDS011;6928;50.546;7.120;2024-02-26T04:28:29;0.77;;;0.73;;
13712;SDS011;6928;50.546;7.120;2024-02-26T04:30:55;1.02;;;0.70;;
13712;SDS011;6928;50.546;7.120;2024-02-26T04:33:22;0.63;;;0.60;;
13712;SDS011;6928;50.546;7.120;2024-02-26T04:35:49;0.40;;;0.40;;
13712;SDS011;6928;50.546;7.120;2024-02-26T04:38:17;0.60;;;0.60;;
13712;SDS011;6928;50.546;7.120;2024-02-26T04:40:43;0.70;;;0.65;;
13712;SDS011;6928;50.546;7.120;2024-02-26T04:43:10;1.38;;;0.60;;
13712;SDS011;6928;50.546;7.120;2024-02-26T04:45:36;2.42;;;1.00;;
13712;SDS011;6928;50.546;7.120;2024-02-26T04:48:03;0.90;;;0.80;;
13712;SDS011;6928;50.546;7.120;2024-02-26T04:50:30;1.40;;;1.20;;
13712;SDS011;6928;50.546;7.120;2024-02-26T04:52:56;0.73;;;0.73;;
13712;SDS011;6928;50.546;7.120;2024-02-26T04:55:24;0.90;;;0.70;;
13712;SDS011;6928;50.546;7.120;2024-02-26T04:57:51;1.05;;;0.80;;
13712;SDS011;6928;50.546;7.120;2024-02-26T05:00:17;0.80;;;0.80;;
13712;SDS011;6928;50.546;7.120;2024-02-26T05:02:44;0.60;;;0.60;;
13712;SDS011;6928;50.546;7.120;2024-02-26T05:05:11;1.00;;;1.00;;
13712;SDS011;6928;50.546;7.120;2024-02-26T05:07:41;1.23;;;0.90;;
13712;SDS011;6928;50.546;7.120;2024-02-26T05:10:08;0.77;;;0.77;;
13712;SDS011;6928;50.546;7.120;2024-02-26T05:12:36;1.58;;;0.90;;
13712;SDS011;6928;50.546;7.120;2024-02-26T05:15:04;0.90;;;0.90;;
13712;SDS011;6928;50.546;7.120;2024-02-26T05:17:31;1.00;;;0.85;;
13712;SDS011;6928;50.546;7.120;2024-02-26T05:19:57;0.82;;;0.82;;
13712;SDS011;6928;50.546;7.120;2024-02-26T05:22:24;0.90;;;0.80;;
13712;SDS011;6928;50.546;7.120;2024-02-26T05:24:51;1.88;;;0.85;;
13712;SDS011;6928;50.546;7.120;2024-02-26T05:27:17;0.85;;;0.85;;
13712;SDS011;6928;50.546;7.120;2024-02-26T05:29:45;1.27;;;1.17;;
13712;SDS011;6928;50.546;7.120;2024-02-26T05:32:12;0.98;;;0.75;;
13712;SDS011;6928;50.546;7.120;2024-02-26T05:34:38;0.70;;;0.70;;
13712;SDS011;6928;50.546;7.120;2024-02-26T05:37:06;0.60;;;0.60;;
13712;SDS011;6928;50.546;7.120;2024-02-26T05:39:33;0.93;;;0.75;;
13712;SDS011;6928;50.546;7.120;2024-02-26T05:42:00;0.70;;;0.70;;
13712;SDS011;6928;50.546;7.120;2024-02-26T05:44:26;0.70;;;0.70;;
13712;SDS011;6928;50.546;7.120;2024-02-26T05:46:54;0.80;;;0.80;;
13712;SDS011;6928;50.546;7.120;2024-02-26T05:49:21;0.80;;;0.70;;
13712;SDS011;6928;50.546;7.120;2024-02-26T05:51:48;2.20;;;0.95;;
13712;SDS011;6928;50.546;7.120;2024-02-26T05:54:15;1.20;;;1.10;;
13712;SDS011;6928;50.546;7.120;2024-02-26T05:56:41;1.27;;;0.77;;
13712;SDS011;6928;50.546;7.120;2024-02-26T05:59:08;0.95;;;0.90;;
13712;SDS011;6928;50.546;7.120;2024-02-26T06:01:35;0.82;;;0.82;;
13712;SDS011;6928;50.546;7.120;2024-02-26T06:06:21;1.02;;;0.98;;
13712;SDS011;6928;50.546;7.120;2024-02-26T06:08:49;0.60;;;0.60;;
13712;SDS011;6928;50.546;7.120;2024-02-26T06:11:15;0.70;;;0.70;;
13712;SDS011;6928;50.546;7.120;2024-02-26T06:13:42;1.10;;;1.00;;
13712;SDS011;6928;50.546;7.120;2024-02-26T06:16:09;1.10;;;1.10;;
13712;SDS011;6928;50.546;7.120;2024-02-26T06:18:36;4.50;;;0.70;;
13712;SDS011;6928;50.546;7.120;2024-02-26T06:21:03;1.02;;;0.70;;
13712;SDS011;6928;50.546;7.120;2024-02-26T06:23:31;1.50;;;1.00;;
13712;SDS011;6928;50.546;7.120;2024-02-26T06:25:58;1.23;;;0.88;;
13712;SDS011;6928;50.546;7.120;2024-02-26T06:28:24;1.60;;;1.23;;
13712;SDS011;6928;50.546;7.120;2024-02-26T06:30:51;1.38;;;0.88;;
13712;SDS011;6928;50.546;7.120;2024-02-26T06:33:18;2.45;;;1.00;;
13712;SDS011;6928;50.546;7.120;2024-02-26T06:35:45;0.98;;;0.98;;
13712;SDS011;6928;50.546;7.120;2024-02-26T06:38:11;0.82;;;0.82;;
13712;SDS011;6928;50.546;7.120;2024-02-26T06:40:40;1.35;;;0.82;;
13712;SDS011;6928;50.546;7.120;2024-02-26T06:43:07;3.90;;;1.05;;
13712;SDS011;6928;50.546;7.120;2024-02-26T06:45:33;4.40;;;1.20;;
13712;SDS011;6928;50.546;7.120;2024-02-26T06:48:00;2.30;;;1.20;;
13712;SDS011;6928;50.546;7.120;2024-02-26T06:50:27;1.30;;;1.20;;
13712;SDS011;6928;50.546;7.120;2024-02-26T06:52:54;1.25;;;1.13;;
13712;SDS011;6928;50.546;7.120;2024-02-26T06:55:21;2.95;;;1.40;;
13712;SDS011;6928;50.546;7.120;2024-02-26T06:57:49;0.98;;;0.90;;
13712;SDS011;6928;50.546;7.120;2024-02-26T07:00:16;1.45;;;1.35;;
13712;SDS011;6928;50.546;7.120;2024-02-26T07:02:43;3.60;;;1.30;;
13712;SDS011;6928;50.546;7.120;2024-02-26T07:05:10;1.40;;;1.15;;
13712;SDS011;6928;50.546;7.120;2024-02-26T07:07:37;2.40;;;1.23;;
13712;SDS011;6928;50.546;7.120;2024-02-26T07:10:04;3.17;;;1.33;;
13712;SDS011;6928;50.546;7.120;2024-02-26T07:12:32;2.58;;;1.30;;
13712;SDS011;6928;50.546;7.120;2024-02-26T07:15:00;1.13;;;1.00;;
13712;SDS011;6928;50.546;7.120;2024-02-26T07:17:27;1.73;;;1.10;;
13712;SDS011;6928;50.546;7.120;2024-02-26T07:19:54;1.73;;;1.38;;
13712;SDS011;6928;50.546;7.120;2024-02-26T07:22:21;1.40;;;1.30;;
13712;SDS011;6928;50.546;7.120;2024-02-26T07:24:49;2.17;;;1.20;;
13712;SDS011;6928;50.546;7.120;2024-02-26T07:27:16;3.60;;;1.30;;
13712;SDS011;6928;50.546;7.120;2024-02-26T07:29:43;3.65;;;1.65;;
13712;SDS011;6928;50.546;7.120;2024-02-26T07:32:11;1.23;;;1.13;;
13712;SDS011;6928;50.546;7.120;2024-02-26T07:34:38;2.65;;;1.10;;
13712;SDS011;6928;50.546;7.120;2024-02-26T07:37:06;1.23;;;1.15;;
13712;SDS011;6928;50.546;7.120;2024-02-26T07:39:33;1.40;;;1.30;;
13712;SDS011;6928;50.546;7.120;2024-02-26T07:42:00;1.55;;;1.45;;
13712;SDS011;6928;50.546;7.120;2024-02-26T07:44:27;1.30;;;1.20;;
13712;SDS011;6928;50.546;7.120;2024-02-26T07:46:53;1.98;;;1.60;;
13712;SDS011;6928;50.546;7.120;2024-02-26T07:49:22;5.38;;;1.42;;
13712;SDS011;6928;50.546;7.120;2024-02-26T07:51:49;1.65;;;1.00;;
13712;SDS011;6928;50.546;7.120;2024-02-26T07:54:15;1.10;;;1.10;;
13712;SDS011;6928;50.546;7.120;2024-02-26T07:56:44;1.10;;;1.10;;
13712;SDS011;6928;50.546;7.120;2024-02-26T07:59:11;1.02;;;1.02;;
13712;SDS011;6928;50.546;7.120;2024-02-26T08:01:37;2.03;;;1.20;;
13712;SDS011;6928;50.546;7.120;2024-02-26T08:04:06;3.75;;;1.27;;
13712;SDS011;6928;50.546;7.120;2024-02-26T08:06:34;1.58;;;1.20;;
13712;SDS011;6928;50.546;7.120;2024-02-26T08:09:01;1.33;;;1.25;;
13712;SDS011;6928;50.546;7.120;2024-02-26T08:11:29;2.70;;;1.50;;
13712;SDS011;6928;50.546;7.120;2024-02-26T08:13:56;1.40;;;1.30;;
13712;SDS011;6928;50.546;7.120;2024-02-26T08:16:24;0.98;;;0.98;;
13712;SDS011;6928;50.546;7.120;2024-02-26T08:18:50;1.20;;;1.10;;
13712;SDS011;6928;50.546;7.120;2024-02-26T08:21:17;1.60;;;1.50;;
13712;SDS011;6928;50.546;7.120;2024-02-26T08:23:46;2.63;;;1.67;;
13712;SDS011;6928;50.546;7.120;2024-02-26T08:26:12;1.80;;;1.70;;
13712;SDS011;6928;50.546;7.120;2024-02-26T08:28:39;1.80;;;1.20;;
13712;SDS011;6928;50.546;7.120;2024-02-26T08:31:06;1.75;;;1.55;;
13712;SDS011;6928;50.546;7.120;2024-02-26T08:33:33;1.75;;;1.45;;
13712;SDS011;6928;50.546;7.120;2024-02-26T08:36:03;1.52;;;1.42;;
13712;SDS011;6928;50.546;7.120;2024-02-26T08:38:31;3.17;;;1.77;;
13712;SDS011;6928;50.546;7.120;2024-02-26T08:41:01;1.58;;;1.48;;
13712;SDS011;6928;50.546;7.120;2024-02-26T08:43:27;1.67;;;1.58;;
13712;SDS011;6928;50.546;7.120;2024-02-26T08:45:54;1.83;;;1.70;;
13712;SDS011;6928;50.546;7.120;2024-02-26T08:48:21;1.30;;;1.20;;
13712;SDS011;6928;50.546;7.120;2024-02-26T08:50:48;2.42;;;1.70;;
13712;SDS011;6928;50.546;7.120;2024-02-26T08:53:14;2.05;;;1.90;;
13712;SDS011;6928;50.546;7.120;2024-02-26T08:55:42;2.72;;;1.70;;
13712;SDS011;6928;50.546;7.120;2024-02-26T08:58:10;3.10;;;1.50;;
13712;SDS011;6928;50.546;7.120;2024-02-26T09:00:37;1.90;;;1.63;;
13712;SDS011;6928;50.546;7.120;2024-02-26T09:03:04;2.83;;;1.70;;
13712;SDS011;6928;50.546;7.120;2024-02-26T09:05:31;2.47;;;1.60;;
13712;SDS011;6928;50.546;7.120;2024-02-26T09:07:58;2.35;;;1.35;;
13712;SDS011;6928;50.546;7.120;2024-02-26T09:10:24;3.83;;;1.90;;
13712;SDS011;6928;50.546;7.120;2024-02-26T09:12:51;3.10;;;1.60;;
13712;SDS011;6928;50.546;7.120;2024-02-26T09:15:19;3.33;;;1.70;;
13712;SDS011;6928;50.546;7.120;2024-02-26T09:17:46;3.22;;;2.15;;
13712;SDS011;6928;50.546;7.120;2024-02-26T09:20:15;2.20;;;1.55;;
13712;SDS011;6928;50.546;7.120;2024-02-26T09:22:45;2.53;;;1.90;;
13712;SDS011;6928;50.546;7.120;2024-02-26T09:25:11;5.75;;;2.00;;
13712;SDS011;6928;50.546;7.120;2024-02-26T09:27:39;2.17;;;2.08;;
13712;SDS011;6928;50.546;7.120;2024-02-26T09:30:06;2.08;;;1.88;;
13712;SDS011;6928;50.546;7.120;2024-02-26T09:32:35;3.33;;;2.05;;
13712;SDS011;6928;50.546;7.120;2024-02-26T09:35:02;2.25;;;2.03;;
13712;SDS011;6928;50.546;7.120;2024-02-26T09:37:29;3.67;;;1.95;;
13712;SDS011;6928;50.546;7.120;2024-02-26T09:39:55;1.65;;;1.50;;
13712;SDS011;6928;50.546;7.120;2024-02-26T09:42:23;1.80;;;1.70;;
13712;SDS011;6928;50.546;7.120;2024-02-26T09:44:53;1.75;;;1.65;;
13712;SDS011;6928;50.546;7.120;2024-02-26T09:47:21;2.00;;;1.90;;
13712;SDS011;6928;50.546;7.120;2024-02-26T09:49:50;2.05;;;1.73;;
13712;SDS011;6928;50.546;7.120;2024-02-26T09:52:19;2.17;;;1.95;;
13712;SDS011;6928;50.546;7.120;2024-02-26T09:54:47;2.08;;;1.88;;
13712;SDS011;6928;50.546;7.120;2024-02-26T09:57:14;2.65;;;1.77;;
13712;SDS011;6928;50.546;7.120;2024-02-26T09:59:43;8.13;;;2.00;;
13712;SDS011;6928;50.546;7.120;2024-02-26T10:02:11;1.77;;;1.63;;
13712;SDS011;6928;50.546;7.120;2024-02-26T10:04:39;1.55;;;1.45;;
13712;SDS011;6928;50.546;7.120;2024-02-26T10:07:09;2.25;;;1.75;;
13712;SDS011;6928;50.546;7.120;2024-02-26T10:09:38;1.65;;;1.52;;
13712;SDS011;6928;50.546;7.120;2024-02-26T10:12:07;1.63;;;1.52;;
13712;SDS011;6928;50.546;7.120;2024-02-26T10:14:36;1.60;;;1.50;;
13712;SDS011;6928;50.546;7.120;2024-02-26T10:17:03;2.35;;;1.65;;
13712;SDS011;6928;50.546;7.120;2024-02-26T10:19:33;2.08;;;1.55;;
13712;SDS011;6928;50.546;7.120;2024-02-26T10:22:00;2.67;;;1.42;;
13712;SDS011;6928;50.546;7.120;2024-02-26T10:24:30;2.25;;;1.70;;
13712;SDS011;6928;50.546;7.120;2024-02-26T10:26:57;4.35;;;1.50;;
13712;SDS011;6928;50.546;7.120;2024-02-26T10:29:24;3.80;;;1.88;;
13712;SDS011;6928;50.546;7.120;2024-02-26T10:31:52;2.53;;;1.63;;
13712;SDS011;6928;50.546;7.120;2024-02-26T10:34:19;3.97;;;1.65;;
13712;SDS011;6928;50.546;7.120;2024-02-26T10:36:46;4.90;;;1.52;;
13712;SDS011;6928;50.546;7.120;2024-02-26T10:39:13;7.93;;;1.95;;
13712;SDS011;6928;50.546;7.120;2024-02-26T10:41:42;1.75;;;1.65;;
13712;SDS011;6928;50.546;7.120;2024-02-26T10:44:10;2.20;;;1.67;;
13712;SDS011;6928;50.546;7.120;2024-02-26T10:46:38;5.07;;;1.75;;
13712;SDS011;6928;50.546;7.120;2024-02-26T10:49:12;1.60;;;1.50;;
13712;SDS011;6928;50.546;7.120;2024-02-26T10:51:43;2.30;;;1.50;;
13712;SDS011;6928;50.546;7.120;2024-02-26T10:54:12;4.03;;;1.50;;
13712;SDS011;6928;50.546;7.120;2024-02-26T10:56:43;1.42;;;1.33;;
13712;SDS011;6928;50.546;7.120;2024-02-26T10:59:13;1.55;;;1.45;;
13712;SDS011;6928;50.546;7.120;2024-02-26T11:01:45;1.52;;;1.42;;
13712;SDS011;6928;50.546;7.120;2024-02-26T11:04:14;3.60;;;1.88;;
13712;SDS011;6928;50.546;7.120;2024-02-26T11:06:42;2.00;;;1.40;;
13712;SDS011;6928;50.546;7.120;2024-02-26T11:09:10;4.38;;;1.70;;
13712;SDS011;6928;50.546;7.120;2024-02-26T11:11:39;2.00;;;1.65;;
13712;SDS011;6928;50.546;7.120;2024-02-26T11:14:09;1.88;;;1.45;;
13712;SDS011;6928;50.546;7.120;2024-02-26T11:16:38;1.75;;;1.63;;
13712;SDS011;6928;50.546;7.120;2024-02-26T11:19:06;3.05;;;2.15;;
13712;SDS011;6928;50.546;7.120;2024-02-26T11:21:34;2.20;;;1.80;;
13712;SDS011;6928;50.546;7.120;2024-02-26T11:24:06;3.53;;;1.80;;
13712;SDS011;6928;50.546;7.120;2024-02-26T11:26:36;2.35;;;2.03;;
13712;SDS011;6928;50.546;7.120;2024-02-26T11:29:08;2.25;;;1.80;;
13712;SDS011;6928;50.546;7.120;2024-02-26T11:31:36;1.55;;;1.40;;
13712;SDS011;6928;50.546;7.120;2024-02-26T11:34:04;3.05;;;1.52;;
13712;SDS011;6928;50.546;7.120;2024-02-26T11:36:35;1.50;;;1.40;;
13712;SDS011;6928;50.546;7.120;2024-02-26T11:39:04;1.60;;;1.50;;
13712;SDS011;6928;50.546;7.120;2024-02-26T11:41:31;2.58;;;1.90;;
13712;SDS011;6928;50.546;7.120;2024-02-26T11:43:58;1.50;;;1.40;;
13712;SDS011;6928;50.546;7.120;2024-02-26T11:46:29;1.80;;;1.58;;
13712;SDS011;6928;50.546;7.120;2024-02-26T11:49:00;2.28;;;1.90;;
13712;SDS011;6928;50.546;7.120;2024-02-26T11:51:32;1.60;;;1.50;;
13712;SDS011;6928;50.546;7.120;2024-02-26T11:54:00;1.92;;;1.70;;
13712;SDS011;6928;50.546;7.120;2024-02-26T11:56:27;1.90;;;1.40;;
13712;SDS011;6928;50.546;7.120;2024-02-26T11:59:01;3.78;;;1.80;;
13712;SDS011;6928;50.546;7.120;2024-02-26T12:01:43;1.83;;;1.50;;
13712;SDS011;6928;50.546;7.120;2024-02-26T12:04:16;2.35;;;1.90;;
13712;SDS011;6928;50.546;7.120;2024-02-26T12:06:46;2.15;;;1.60;;
13712;SDS011;6928;50.546;7.120;2024-02-26T12:09:32;1.77;;;1.58;;
13712;SDS011;6928;50.546;7.120;2024-02-26T12:12:02;2.00;;;1.70;;
13712;SDS011;6928;50.546;7.120;2024-02-26T12:14:32;2.97;;;2.05;;
13712;SDS011;6928;50.546;7.120;2024-02-26T12:17:02;2.25;;;2.05;;
13712;SDS011;6928;50.546;7.120;2024-02-26T12:19:32;2.45;;;1.98;;
13712;SDS011;6928;50.546;7.120;2024-02-26T12:22:00;1.92;;;1.70;;
13712;SDS011;6928;50.546;7.120;2024-02-26T12:24:26;2.00;;;1.90;;
13712;SDS011;6928;50.546;7.120;2024-02-26T12:26:53;5.72;;;2.17;;
13712;SDS011;6928;50.546;7.120;2024-02-26T12:29:20;2.25;;;2.05;;
13712;SDS011;6928;50.546;7.120;2024-02-26T12:31:47;1.70;;;1.60;;
13712;SDS011;6928;50.546;7.120;2024-02-26T12:34:16;5.75;;;1.98;;
13712;SDS011;6928;50.546;7.120;2024-02-26T12:36:42;3.60;;;1.52;;
13712;SDS011;6928;50.546;7.120;2024-02-26T12:39:10;2.15;;;1.92;;
13712;SDS011;6928;50.546;7.120;2024-02-26T12:41:37;2.55;;;1.63;;
13712;SDS011;6928;50.546;7.120;2024-02-26T12:44:05;2.88;;;1.73;;
13712;SDS011;6928;50.546;7.120;2024-02-26T12:46:33;2.33;;;2.00;;
13712;SDS011;6928;50.546;7.120;2024-02-26T12:49:00;2.53;;;2.00;;
13712;SDS011;6928;50.546;7.120;2024-02-26T12:51:28;1.75;;;1.65;;
13712;SDS011;6928;50.546;7.120;2024-02-26T12:53:56;2.40;;;1.80;;
13712;SDS011;6928;50.546;7.120;2024-02-26T12:56:23;4.18;;;2.25;;
13712;SDS011;6928;50.546;7.120;2024-02-26T12:58:51;2.13;;;1.88;;
13712;SDS011;6928;50.546;7.120;2024-02-26T13:01:19;3.72;;;2.22;;
13712;SDS011;6928;50.546;7.120;2024-02-26T13:03:49;5.40;;;2.20;;
13712;SDS011;6928;50.546;7.120;2024-02-26T13:06:17;2.25;;;1.77;;
13712;SDS011;6928;50.546;7.120;2024-02-26T13:08:45;4.30;;;1.70;;
13712;SDS011;6928;50.546;7.120;2024-02-26T13:11:13;2.17;;;1.98;;
13712;SDS011;6928;50.546;7.120;2024-02-26T13:13:40;1.65;;;1.55;;
13712;SDS011;6928;50.546;7.120;2024-02-26T13:16:14;3.63;;;2.20;;
13712;SDS011;6928;50.546;7.120;2024-02-26T13:18:42;4.45;;;2.58;;
13712;SDS011;6928;50.546;7.120;2024-02-26T13:21:09;5.80;;;2.00;;
13712;SDS011;6928;50.546;7.120;2024-02-26T13:23:38;4.72;;;2.53;;
13712;SDS011;6928;50.546;7.120;2024-02-26T13:26:07;2.13;;;2.00;;
13712;SDS011;6928;50.546;7.120;2024-02-26T13:28:38;1.70;;;1.60;;
13712;SDS011;6928;50.546;7.120;2024-02-26T13:31:04;4.07;;;2.20;;
13712;SDS011;6928;50.546;7.120;2024-02-26T13:33:33;2.65;;;2.45;;
13712;SDS011;6928;50.546;7.120;2024-02-26T13:36:00;2.30;;;2.10;;
13712;SDS011;6928;50.546;7.120;2024-02-26T13:38:28;2.80;;;2.35;;
13712;SDS011;6928;50.546;7.120;2024-02-26T13:40:54;4.50;;;2.45;;
13712;SDS011;6928;50.546;7.120;2024-02-26T13:43:22;2.63;;;2.15;;
13712;SDS011;6928;50.546;7.120;2024-02-26T13:45:49;3.80;;;2.80;;
13712;SDS011;6928;50.546;7.120;2024-02-26T13:48:16;2.58;;;2.13;;
13712;SDS011;6928;50.546;7.120;2024-02-26T13:50:44;2.15;;;2.03;;
13712;SDS011;6928;50.546;7.120;2024-02-26T13:53:11;2.63;;;2.28;;
13712;SDS011;6928;50.546;7.120;2024-02-26T13:55:39;2.55;;;2.35;;
13712;SDS011;6928;50.546;7.120;2024-02-26T13:58:08;2.70;;;2.20;;
13712;SDS011;6928;50.546;7.120;2024-02-26T14:00:38;2.28;;;2.10;;
13712;SDS011;6928;50.546;7.120;2024-02-26T14:03:06;2.22;;;2.10;;
13712;SDS011;6928;50.546;7.120;2024-02-26T14:05:34;5.53;;;2.50;;
13712;SDS011;6928;50.546;7.120;2024-02-26T14:08:01;2.42;;;2.22;;
13712;SDS011;6928;50.546;7.120;2024-02-26T14:10:28;2.42;;;2.22;;
13712;SDS011;6928;50.546;7.120;2024-02-26T14:12:56;5.05;;;3.08;;
13712;SDS011;6928;50.546;7.120;2024-02-26T14:15:23;3.20;;;2.45;;
13712;SDS011;6928;50.546;7.120;2024-02-26T14:17:51;3.28;;;2.97;;
13712;SDS011;6928;50.546;7.120;2024-02-26T14:20:21;2.55;;;2.35;;
13712;SDS011;6928;50.546;7.120;2024-02-26T14:22:48;4.00;;;2.55;;
13712;SDS011;6928;50.546;7.120;2024-02-26T14:25:16;5.10;;;2.33;;
13712;SDS011;6928;50.546;7.120;2024-02-26T14:27:44;3.03;;;2.65;;
13712;SDS011;6928;50.546;7.120;2024-02-26T14:30:11;3.42;;;2.83;;
13712;SDS011;6928;50.546;7.120;2024-02-26T14:32:38;3.75;;;2.90;;
13712;SDS011;6928;50.546;7.120;2024-02-26T14:35:07;8.30;;;2.95;;
13712;SDS011;6928;50.546;7.120;2024-02-26T14:37:35;2.75;;;2.40;;
13712;SDS011;6928;50.546;7.120;2024-02-26T14:40:02;2.60;;;2.38;;
13712;SDS011;6928;50.546;7.120;2024-02-26T14:42:30;6.97;;;4.50;;
13712;SDS011;6928;50.546;7.120;2024-02-26T14:44:57;4.13;;;3.25;;
13712;SDS011;6928;50.546;7.120;2024-02-26T14:47:25;6.65;;;3.65;;
13712;SDS011;6928;50.546;7.120;2024-02-26T14:49:52;4.47;;;3.65;;
13712;SDS011;6928;50.546;7.120;2024-02-26T14:52:20;10.10;;;4.35;;
13712;SDS011;6928;50.546;7.120;2024-02-26T14:54:47;4.80;;;3.15;;
13712;SDS011;6928;50.546;7.120;2024-02-26T14:57:16;5.60;;;4.18;;
13712;SDS011;6928;50.546;7.120;2024-02-26T14:59:43;3.30;;;3.00;;
13712;SDS011;6928;50.546;7.120;2024-02-26T15:02:10;4.03;;;3.00;;
13712;SDS011;6928;50.546;7.120;2024-02-26T15:04:37;4.05;;;2.47;;